Time;durP1;ratioP1;P1;durP2;ratioP2;P2;SDS_P1;SDS_P2;PMS_P1;PMS_P2;Temp;Humidity;BMP_temperature;BMP_pressure;BME280_temperature;BME280_humidity;BME280_pressure;Samples;Min_cycle;Max_cycle;Signal;HPM_P1;HPM_P2
2022/06/04 00:01:51;;;;;;;29.30;19.10;;;;;;;23.15;74.42;101320.31;6187922;23;20352;-81
2022/06/04 00:04:17;;;;;;;26.98;19.70;;;;;;;23.78;74.50;101428.53;6158311;23;20108;-81
2022/06/04 00:06:45;;;;;;;27.95;19.70;;;;;;;23.25;74.54;101348.69;6161776;23;20028;-81
2022/06/04 00:09:14;;;;;;;26.85;19.40;;;;;;;23.76;74.47;101430.63;6161051;23;20013;-80
2022/06/04 00:17:16;;;;;;;27.17;20.25;;;;;;;23.79;74.89;101457.34;6176980;23;20638;-80
2022/06/04 00:19:42;;;;;;;27.67;21.05;;;;;;;23.71;74.83;101454.75;6161203;23;20303;-81
2022/06/04 00:22:09;;;;;;;24.38;20.92;;;;;;;23.74;74.78;101446.25;6161736;23;20040;-80
2022/06/04 00:24:36;;;;;;;28.02;20.70;;;;;;;23.79;74.55;101447.31;6151598;23;20388;-78
2022/06/04 00:27:03;;;;;;;34.20;21.27;;;;;;;23.43;74.84;101396.06;6161429;23;20025;-80
2022/06/04 00:29:32;;;;;;;28.08;20.10;;;;;;;23.77;74.71;101454.00;6161438;23;20033;-81
2022/06/04 00:31:59;;;;;;;28.60;21.23;;;;;;;23.44;74.61;101416.69;6161669;23;20024;-81
2022/06/04 00:34:26;;;;;;;25.98;21.45;;;;;;;23.48;74.92;101436.94;6161150;23;20352;-79
2022/06/04 00:36:53;;;;;;;25.48;20.05;;;;;;;23.31;75.01;101408.53;6151163;23;20175;-80
2022/06/04 00:39:19;;;;;;;23.83;19.95;;;;;;;23.65;75.09;101451.00;6187784;23;20021;-80
2022/06/04 00:42:07;;;;;;;27.52;20.55;;;;;;;23.60;75.29;101442.63;6162037;23;20025;-80
2022/06/04 00:45:12;;;;;;;29.10;20.08;;;;;;;23.62;75.42;101446.81;6161227;23;20515;-80
2022/06/04 00:47:40;;;;;;;28.33;20.23;;;;;;;23.65;75.38;101446.41;6187645;23;20021;-80
2022/06/04 00:50:09;;;;;;;24.67;21.17;;;;;;;23.52;75.23;101423.81;6161476;23;20056;-79
2022/06/04 00:52:36;;;;;;;34.10;22.50;;;;;;;23.60;75.41;101450.75;6187155;23;20017;-79
2022/06/04 00:55:06;;;;;;;24.65;22.00;;;;;;;23.67;75.31;101448.91;6161284;23;20021;-79
2022/06/04 00:57:43;;;;;;;37.05;22.52;;;;;;;23.64;75.47;101433.91;6151579;23;20112;-81
2022/06/04 01:00:24;;;;;;;27.98;22.35;;;;;;;23.34;75.59;101389.97;6161501;23;20069;-80
2022/06/04 01:03:06;;;;;;;28.05;21.42;;;;;;;23.67;75.20;101436.19;6187405;23;20059;-79
2022/06/04 01:06:06;;;;;;;32.47;22.08;;;;;;;23.67;75.24;101438.91;6160142;23;20288;-79
2022/06/04 01:08:49;;;;;;;30.50;22.30;;;;;;;23.23;75.37;101358.91;6187503;23;20044;-79
2022/06/04 01:11:21;;;;;;;31.65;22.40;;;;;;;23.63;75.16;101421.38;6160765;23;20092;-80
2022/06/04 01:14:15;;;;;;;29.88;22.20;;;;;;;23.64;75.49;101430.31;6160708;23;20021;-81
2022/06/04 01:17:00;;;;;;;26.23;21.60;;;;;;;23.50;75.59;101418.63;6160504;23;20599;-80
2022/06/04 01:19:57;;;;;;;29.75;22.95;;;;;;;23.61;75.42;101415.31;6160713;23;20701;-79
2022/06/04 01:22:44;;;;;;;28.83;23.17;;;;;;;23.60;75.56;101420.94;6160908;23;20032;-81
2022/06/04 01:25:23;;;;;;;33.90;22.50;;;;;;;23.62;75.36;101419.72;6151160;23;20028;-81
2022/06/04 01:28:03;;;;;;;30.77;22.80;;;;;;;23.41;75.34;101384.59;6160938;23;20032;-80
2022/06/04 01:30:35;;;;;;;33.53;21.85;;;;;;;23.52;75.52;101407.56;6162416;23;20028;-80
2022/06/04 01:33:07;;;;;;;33.78;22.30;;;;;;;23.51;75.40;101406.72;6153025;23;20073;-81
2022/06/04 01:35:43;;;;;;;30.95;25.38;;;;;;;23.45;75.37;101381.28;6162773;23;20079;-80
2022/06/04 01:38:57;;;;;;;34.88;26.30;;;;;;;23.37;75.29;101364.34;6152957;23;20017;-80
2022/06/04 01:41:35;;;;;;;31.60;25.05;;;;;;;23.54;75.27;101400.91;6097420;23;20017;-80
2022/06/04 01:44:08;;;;;;;36.20;26.02;;;;;;;23.49;75.50;101402.56;6189000;23;20076;-81
2022/06/04 01:46:40;;;;;;;29.27;25.02;;;;;;;23.51;75.62;101411.31;6153025;23;20274;-80
2022/06/04 01:49:30;;;;;;;35.58;26.02;;;;;;;23.34;75.71;101383.72;6153818;23;20025;-81
2022/06/04 01:52:33;;;;;;;33.28;25.83;;;;;;;23.46;75.34;101382.94;6163371;23;20047;-80
2022/06/04 01:55:16;;;;;;;29.60;25.23;;;;;;;22.60;75.29;101257.97;6163117;23;20063;-79
2022/06/04 01:58:03;;;;;;;30.98;23.73;;;;;;;23.45;75.39;101392.13;6163110;23;20020;-82
2022/06/04 02:00:43;;;;;;;34.95;25.83;;;;;;;23.42;75.42;101397.09;6162783;23;20028;-80
2022/06/04 02:03:14;;;;;;;32.72;25.80;;;;;;;23.43;75.27;101405.03;6147486;23;20021;-80
2022/06/04 02:05:47;;;;;;;32.67;26.13;;;;;;;23.16;75.33;101365.31;6157610;23;20068;-81
2022/06/04 02:08:18;;;;;;;37.05;26.08;;;;;;;23.22;75.20;101375.34;6157783;23;20031;-81
2022/06/04 02:10:54;;;;;;;39.28;26.75;;;;;;;23.10;75.42;101348.00;6147622;23;20076;-80
2022/06/04 02:13:21;;;;;;;34.60;27.05;;;;;;;22.73;74.99;101279.69;6147863;23;20415;-80
2022/06/04 02:15:56;;;;;;;36.08;26.52;;;;;;;23.41;74.79;101395.44;6147812;23;20032;-80
2022/06/04 02:18:24;;;;;;;43.28;27.60;;;;;;;23.54;74.71;101425.28;6157497;23;20025;-80
2022/06/04 02:20:50;;;;;;;40.40;29.42;;;;;;;23.22;75.17;101383.47;6157122;23;20033;-80
2022/06/04 02:23:18;;;;;;;38.30;29.30;;;;;;;23.20;75.41;101383.66;6147390;23;20464;-79
2022/06/04 02:25:45;;;;;;;39.53;29.42;;;;;;;23.39;76.03;101413.75;6147855;23;20017;-79
2022/06/04 02:28:13;;;;;;;44.25;32.67;;;;;;;22.88;75.58;101335.56;6157251;23;20025;-79
2022/06/04 02:30:58;;;;;;;43.40;32.60;;;;;;;23.44;75.40;101408.56;6157070;23;20446;-81
2022/06/04 02:33:36;;;;;;;47.67;31.63;;;;;;;;;;6147417;23;20030;-81
2022/06/04 02:36:15;;;;;;;37.33;30.88;;;;;;;23.38;75.71;101401.28;6147414;23;20017;-81
2022/06/04 02:38:51;;;;;;;39.80;32.70;;;;;;;23.30;75.62;101398.72;6157854;23;20041;-80
2022/06/04 02:41:27;;;;;;;49.97;32.30;;;;;;;22.48;75.48;101259.56;6147201;23;20022;-80
2022/06/04 02:43:57;;;;;;;42.97;32.22;;;;;;;23.30;75.58;101410.38;6157285;23;20323;-80
2022/06/04 02:46:32;;;;;;;45.00;30.73;;;;;;;22.93;75.49;101346.63;6157865;23;20033;-82
2022/06/04 02:48:59;;;;;;;50.58;31.08;;;;;;;22.21;75.57;101232.34;6157996;23;20100;-80
2022/06/04 02:51:33;;;;;;;45.47;31.33;;;;;;;23.25;75.35;101396.59;6157786;23;20017;-80
2022/06/04 02:54:06;;;;;;;42.38;30.67;;;;;;;23.05;75.43;101369.44;6157405;23;20029;-80
2022/06/04 02:56:34;;;;;;;41.17;30.20;;;;;;;23.29;75.56;101407.88;6157630;23;20021;-81
2022/06/04 02:59:06;;;;;;;49.90;31.52;;;;;;;22.61;75.46;101298.34;6147935;23;20078;-79
2022/06/04 03:01:39;;;;;;;48.17;31.50;;;;;;;23.23;74.99;101394.13;6158068;23;20401;-80
2022/06/04 03:04:07;;;;;;;43.88;32.40;;;;;;;23.46;74.73;101414.63;6118767;23;20030;-81
2022/06/04 03:06:35;;;;;;;53.67;36.45;;;;;;;22.31;74.71;101242.81;6128834;23;20152;-80
2022/06/04 03:09:06;;;;;;;54.83;35.60;;;;;;;23.12;75.06;101369.47;6127720;23;20481;-80
2022/06/04 03:11:50;;;;;;;56.20;37.22;;;;;;;23.21;75.47;101400.78;6129860;23;20069;-80
2022/06/04 03:14:18;;;;;;;63.05;40.38;;;;;;;23.21;75.71;101389.94;6128131;23;20350;-79
2022/06/04 03:16:47;;;;;;;60.92;41.97;;;;;;;23.38;75.43;101444.63;6127923;23;20025;-80
2022/06/04 03:19:14;;;;;;;59.03;41.17;;;;;;;23.23;76.12;101428.50;6127777;23;20013;-81
2022/06/04 03:21:41;;;;;;;83.30;50.67;;;;;;;23.22;76.27;101418.69;6127723;23;20030;-80
2022/06/04 03:24:10;;;;;;;74.88;48.83;;;;;;;23.33;76.49;101434.38;6127319;23;20072;-81
2022/06/04 03:26:37;;;;;;;73.25;49.42;;;;;;;23.39;75.90;101436.28;6127289;23;20647;-82
2022/06/04 03:29:04;;;;;;;69.65;45.10;;;;;;;23.39;75.98;101449.00;6129338;23;20077;-81
2022/06/04 03:31:34;;;;;;;69.32;44.30;;;;;;;23.30;75.36;101423.91;6127523;23;20497;-79
2022/06/04 03:34:03;;;;;;;70.70;46.72;;;;;;;23.48;75.74;101449.66;6128524;23;20113;-80
2022/06/04 03:36:31;;;;;;;70.55;45.67;;;;;;;23.48;75.86;101455.91;6127314;23;20038;-79
2022/06/04 03:38:58;;;;;;;73.47;46.10;;;;;;;23.42;76.03;101445.88;6117917;23;20485;-79
2022/06/04 03:41:32;;;;;;;77.15;44.40;;;;;;;23.16;76.40;101414.91;6117140;23;20026;-78
2022/06/04 03:44:01;;;;;;;69.65;42.55;;;;;;;23.20;76.43;101409.91;6127078;23;20030;-80
2022/06/04 03:46:28;;;;;;;60.00;40.90;;;;;;;23.24;76.02;101417.44;6117649;23;20096;-77
2022/06/04 03:48:58;;;;;;;70.00;40.92;;;;;;;22.75;75.38;101314.69;6127322;23;20021;-82
2022/06/04 03:51:29;;;;;;;66.97;41.15;;;;;;;23.47;75.28;101437.97;6129179;23;20056;-79
2022/06/04 03:53:56;;;;;;;56.75;38.45;;;;;;;23.46;75.20;101436.31;6127095;23;20105;-81
2022/06/04 03:56:24;;;;;;;61.67;39.17;;;;;;;23.29;74.77;101407.88;6117375;23;20071;-79
2022/06/04 03:58:51;;;;;;;66.35;40.08;;;;;;;22.68;75.25;101317.34;6127217;23;20026;-80
2022/06/04 04:01:28;;;;;;;59.88;39.83;;;;;;;23.43;75.06;101436.72;6126772;23;20523;-77
2022/06/04 04:03:56;;;;;;;56.75;37.13;;;;;;;23.32;75.14;101419.13;6155778;23;20056;-81
2022/06/04 04:06:29;;;;;;;58.33;37.78;;;;;;;23.38;75.30;101433.78;6156395;23;20180;-80
2022/06/04 04:09:01;;;;;;;62.75;41.17;;;;;;;23.17;75.37;101386.78;6146584;23;20026;-79
2022/06/04 04:11:28;;;;;;;66.38;42.75;;;;;;;23.44;75.52;101427.53;6146661;23;20021;-79
2022/06/04 04:13:55;;;;;;;70.63;44.42;;;;;;;23.29;75.25;101397.88;6158248;23;20029;-79
2022/06/04 04:16:23;;;;;;;67.50;48.20;;;;;;;23.09;75.63;101359.03;6156237;23;20389;-79
2022/06/04 04:18:51;;;;;;;70.18;47.88;;;;;;;23.30;75.77;101387.88;6155789;23;20014;-79
2022/06/04 04:21:21;;;;;;;84.68;52.20;;;;;;;23.25;75.52;101362.25;6148317;23;20025;-79
2022/06/04 04:24:02;;;;;;;92.47;53.65;;;;;;;23.49;75.72;101414.22;6144713;23;20017;-80
2022/06/04 04:26:28;;;;;;;81.30;52.67;;;;;;;22.78;76.52;101320.50;6147618;23;20029;-80
2022/06/04 04:28:55;;;;;;;83.80;52.60;;;;;;;23.18;76.77;101380.34;6156674;23;20022;-79
2022/06/04 04:31:22;;;;;;;91.38;53.72;;;;;;;22.54;76.82;101291.22;6156039;23;20497;-80
2022/06/04 04:33:51;;;;;;;87.00;51.45;;;;;;;22.71;76.63;101325.06;6156600;23;20025;-78
2022/06/04 04:36:18;;;;;;;85.15;50.10;;;;;;;22.66;76.70;101299.63;6152937;23;20569;-76
2022/06/04 04:38:46;;;;;;;84.57;51.00;;;;;;;23.31;77.05;101405.81;6159128;23;20017;-78
2022/06/04 04:41:15;;;;;;;87.32;50.42;;;;;;;23.39;76.27;101409.19;6160115;23;20528;-81
2022/06/04 04:43:42;;;;;;;83.95;51.00;;;;;;;23.18;76.48;101380.34;6161940;23;20017;-81
2022/06/04 04:46:11;;;;;;;85.50;51.35;;;;;;;22.13;76.42;101218.94;6149956;23;20049;-81
2022/06/04 04:48:38;;;;;;;76.65;49.47;;;;;;;23.49;75.88;101425.06;6149708;23;20026;-79
2022/06/04 04:51:18;;;;;;;84.50;50.33;;;;;;;22.91;75.72;101332.44;6148723;23;20490;-83
2022/06/04 04:53:46;;;;;;;84.63;50.63;;;;;;;23.55;75.41;101421.56;6146492;23;20195;-81
2022/06/04 04:56:21;;;;;;;83.88;50.95;;;;;;;23.34;75.39;101422.50;6156132;23;20346;-79
2022/06/04 04:58:48;;;;;;;77.40;47.88;;;;;;;22.91;75.60;101357.63;6155965;23;20017;-79
2022/06/04 05:01:17;;;;;;;76.10;50.20;;;;;;;23.49;75.78;101456.75;6155383;23;20477;-78
2022/06/04 05:03:44;;;;;;;78.95;48.78;;;;;;;23.49;75.73;101454.88;6156876;23;20524;-79
2022/06/04 05:06:13;;;;;;;76.78;49.17;;;;;;;23.46;75.26;101436.31;6149642;23;20060;-79
2022/06/04 05:08:41;;;;;;;67.22;44.03;;;;;;;23.64;74.56;101436.59;6157958;23;20030;-78
2022/06/04 05:11:11;;;;;;;67.25;44.35;;;;;;;23.21;73.87;101352.84;6157752;23;20018;-80
2022/06/04 05:13:40;;;;;;;;;;;;;;;23.57;74.33;101419.47;6158474;23;20037;-80
2022/06/04 05:16:10;;;;;;;77.65;47.45;;;;;;;23.37;74.55;101388.75;6157573;23;20304;-78
2022/06/04 05:18:37;;;;;;;85.90;49.10;;;;;;;23.46;75.44;101431.72;6159147;23;20384;-80
2022/06/04 05:21:09;;;;;;;72.65;48.65;;;;;;;23.49;75.45;101441.31;6157729;23;20009;-79
2022/06/04 05:23:35;;;;;;;77.70;50.88;;;;;;;23.47;75.90;101440.69;6158269;23;20366;-81
2022/06/04 05:26:02;;;;;;;78.65;47.05;;;;;;;23.23;75.61;101404.94;6158236;23;20080;-80
2022/06/04 05:28:29;;;;;;;72.00;43.70;;;;;;;23.35;75.72;101416.06;6158286;23;20085;-79
2022/06/04 05:30:55;;;;;;;66.88;46.20;;;;;;;23.18;75.20;101380.34;6158180;23;20166;-80
2022/06/04 05:33:25;;;;;;;66.05;46.60;;;;;;;23.55;75.55;101440.53;6158444;23;20025;-81
2022/06/04 05:35:51;;;;;;;82.05;51.35;;;;;;;23.16;75.07;101368.88;6159566;23;20465;-80
2022/06/04 05:38:18;;;;;;;76.40;51.33;;;;;;;23.63;75.21;101451.19;6158526;23;20315;-81
2022/06/04 05:40:45;;;;;;;74.72;50.55;;;;;;;22.31;75.27;101254.47;6157794;23;20805;-80
2022/06/04 05:43:12;;;;;;;81.43;49.70;;;;;;;23.47;74.96;101432.53;6158064;23;20018;-80
2022/06/04 05:45:38;;;;;;;79.55;52.35;;;;;;;23.62;75.15;101462.25;6157542;23;20100;-80
2022/06/04 05:48:05;;;;;;;76.50;53.25;;;;;;;23.69;74.69;101460.41;6156902;23;20025;-79
2022/06/04 05:50:32;;;;;;;78.80;54.38;;;;;;;23.63;74.97;101459.31;6157733;23;20035;-80
2022/06/04 05:52:59;;;;;;;75.47;50.67;;;;;;;23.70;75.09;101480.19;6147994;23;20092;-79
2022/06/04 05:55:26;;;;;;;72.60;48.85;;;;;;;22.93;75.00;101357.47;6157171;23;20018;-81
2022/06/04 05:57:52;;;;;;;67.43;47.05;;;;;;;23.56;74.20;101453.03;6146973;23;20028;-80
2022/06/04 06:00:19;;;;;;;68.93;48.90;;;;;;;23.87;73.67;101486.97;6158878;23;20041;-80
2022/06/04 06:02:46;;;;;;;65.47;48.15;;;;;;;23.88;74.11;101491.34;6163170;23;20524;-80
2022/06/04 06:05:18;;;;;;;79.15;51.70;;;;;;;23.85;73.92;101478.19;6163664;23;20041;-79
2022/06/04 06:07:45;;;;;;;71.18;48.03;;;;;;;23.84;73.78;101481.97;6162115;23;20651;-79
2022/06/04 06:10:12;;;;;;;72.43;49.22;;;;;;;23.92;73.47;101489.91;6162558;23;20021;-79
2022/06/04 06:12:38;;;;;;;76.47;51.22;;;;;;;23.81;73.85;101476.91;6187941;23;20025;-79
2022/06/04 06:15:06;;;;;;;70.25;49.50;;;;;;;23.86;74.29;101509.69;6161017;23;20013;-78
2022/06/04 06:17:32;;;;;;;73.53;48.58;;;;;;;23.62;74.44;101473.09;6162197;23;20051;-78
2022/06/04 06:19:59;;;;;;;76.55;46.75;;;;;;;22.65;74.31;101315.03;6162315;23;20013;-79
2022/06/04 06:22:26;;;;;;;66.20;46.10;;;;;;;23.66;73.98;101469.75;6152694;23;20071;-78
2022/06/04 06:24:53;;;;;;;79.30;50.45;;;;;;;24.06;73.51;101510.63;6162368;23;20040;-80
2022/06/04 06:27:20;;;;;;;75.50;49.28;;;;;;;24.12;73.36;101516.25;6162219;23;20032;-81
2022/06/04 06:29:46;;;;;;;77.82;50.17;;;;;;;23.86;73.61;101501.56;6188287;23;20017;-80
2022/06/04 06:32:13;;;;;;;72.03;46.65;;;;;;;24.05;73.20;101519.78;6162313;23;20025;-81
2022/06/04 06:34:42;;;;;;;71.47;49.08;;;;;;;23.94;73.30;101504.09;6162724;23;20306;-80
2022/06/04 06:37:09;;;;;;;71.35;46.83;;;;;;;24.03;73.62;101512.88;6162228;23;20193;-80
2022/06/04 06:39:37;;;;;;;72.97;48.40;;;;;;;23.95;73.93;101519.31;6162506;23;20036;-79
2022/06/04 06:42:04;;;;;;;69.55;45.42;;;;;;;23.78;73.91;101493.59;6152076;23;20091;-79
2022/06/04 06:44:31;;;;;;;67.55;48.08;;;;;;;23.99;73.78;101523.31;6152352;23;20025;-80
2022/06/04 06:46:57;;;;;;;66.13;47.88;;;;;;;24.03;73.08;101491.19;6188268;23;20025;-79
2022/06/04 06:49:27;;;;;;;66.55;45.65;;;;;;;23.19;73.52;101370.34;6152050;23;20025;-80
2022/06/04 06:51:59;;;;;;;69.00;46.08;;;;;;;23.90;73.19;101467.56;6156014;23;20028;-80
2022/06/04 06:54:35;;;;;;;69.03;45.75;;;;;;;23.97;73.32;101482.00;6161694;23;20029;-80
2022/06/04 06:57:07;;;;;;;69.05;46.33;;;;;;;24.16;72.84;101507.50;6151781;23;20480;-79
2022/06/04 06:59:35;;;;;;;73.25;48.72;;;;;;;24.23;72.71;101496.69;6162173;23;20076;-81
2022/06/04 07:02:01;;;;;;;67.38;47.90;;;;;;;22.59;73.15;101246.28;6188351;23;20036;-80
2022/06/04 07:04:28;;;;;;;66.82;45.22;;;;;;;23.61;73.18;101412.59;6162343;23;20017;-80
2022/06/04 07:07:00;;;;;;;69.43;47.63;;;;;;;24.22;73.04;101511.28;6187568;23;20020;-79
2022/06/04 07:09:28;;;;;;;71.60;48.42;;;;;;;24.22;73.50;101514.81;6152547;23;20017;-80
2022/06/04 07:11:55;;;;;;;83.07;52.10;;;;;;;24.32;73.67;101522.56;6162377;23;20021;-80
2022/06/04 07:14:23;;;;;;;91.95;59.50;;;;;;;24.41;73.03;101521.34;6161951;23;20072;-80
2022/06/04 07:16:57;;;;;;;93.57;57.80;;;;;;;24.52;72.43;101534.34;6152120;23;20361;-79
2022/06/04 07:19:25;;;;;;;92.45;59.53;;;;;;;24.46;72.34;101524.28;6152031;23;20017;-81
2022/06/04 07:21:53;;;;;;;91.40;60.67;;;;;;;23.94;72.73;101443.63;6161034;23;20165;-79
2022/06/04 07:24:20;;;;;;;86.88;57.28;;;;;;;24.04;72.80;101457.63;6151326;23;20025;-80
2022/06/04 07:26:48;;;;;;;95.60;60.90;;;;;;;24.58;72.42;101520.97;6177617;23;20532;-80
2022/06/04 07:29:15;;;;;;;92.07;63.40;;;;;;;24.43;72.39;101504.84;6151014;23;20017;-80
2022/06/04 07:31:42;;;;;;;96.68;62.75;;;;;;;24.14;72.78;101471.63;6161776;23;20080;-78
2022/06/04 07:34:09;;;;;;;97.38;62.45;;;;;;;24.07;72.42;101463.44;6161750;23;20083;-78
2022/06/04 07:36:42;;;;;;;90.68;58.42;;;;;;;23.41;72.35;101352.09;6162662;23;20024;-79
2022/06/04 07:39:11;;;;;;;87.47;60.42;;;;;;;24.53;72.33;101536.00;6162034;23;20550;-79
2022/06/04 07:41:42;;;;;;;90.82;57.63;;;;;;;24.62;72.07;101533.09;6161859;23;20017;-78
2022/06/04 07:44:16;;;;;;;83.68;56.08;;;;;;;24.43;71.66;101486.69;6161456;23;20021;-79
2022/06/04 07:46:47;;;;;;;85.25;56.78;;;;;;;24.39;71.38;101488.13;6161480;23;20032;-78
2022/06/04 07:49:21;;;;;;;77.60;52.72;;;;;;;23.52;71.15;101348.81;6177683;23;20017;-78
2022/06/04 07:51:51;;;;;;;84.63;52.38;;;;;;;24.05;71.10;101419.41;6160869;23;20024;-80
2022/06/04 07:54:18;;;;;;;79.95;53.30;;;;;;;24.47;70.79;101470.88;6161452;23;20161;-80
2022/06/04 07:56:45;;;;;;;76.18;52.85;;;;;;;24.82;70.48;101509.50;6187382;23;20319;-79
2022/06/04 07:59:16;;;;;;;77.47;50.92;;;;;;;24.68;70.26;101486.13;6187033;23;20021;-78
2022/06/04 08:01:44;;;;;;;80.20;54.35;;;;;;;24.70;70.99;101511.19;6160909;23;20025;-79
2022/06/04 08:04:11;;;;;;;79.82;51.83;;;;;;;24.43;70.75;101458.72;6151301;23;20461;-80
2022/06/04 08:06:37;;;;;;;76.22;50.42;;;;;;;24.69;70.73;101506.81;6187428;23;20025;-80
2022/06/04 08:09:12;;;;;;;75.20;50.70;;;;;;;24.66;71.18;101491.78;6161356;23;20024;-79
2022/06/04 08:11:41;;;;;;;80.28;54.40;;;;;;;24.86;70.02;101493.66;6161711;23;20560;-77
2022/06/04 08:14:08;;;;;;;72.28;51.53;;;;;;;24.95;70.41;101528.53;6160725;23;20084;-79
2022/06/04 08:16:38;;;;;;;72.43;49.50;;;;;;;23.90;70.15;101329.28;6161189;23;20465;-82
2022/06/04 08:19:06;;;;;;;74.90;51.67;;;;;;;25.09;69.66;101498.63;6161159;23;20250;-81
2022/06/04 08:21:34;;;;;;;78.43;51.20;;;;;;;25.14;69.78;101520.56;6161057;23;20079;-81
2022/06/04 08:24:01;;;;;;;80.07;51.20;;;;;;;25.08;69.52;101488.81;6161449;23;20025;-80
2022/06/04 08:26:28;;;;;;;79.78;50.10;;;;;;;25.26;69.20;101512.63;6161405;23;20025;-78
2022/06/04 08:28:55;;;;;;;77.85;49.72;;;;;;;25.07;68.73;101463.50;6160732;23;20028;-80
2022/06/04 08:31:22;;;;;;;73.53;50.55;;;;;;;25.40;69.05;101521.63;6151451;23;20021;-81
2022/06/04 08:33:49;;;;;;;68.13;48.42;;;;;;;25.20;68.95;101476.28;6160897;23;20406;-78
2022/06/04 08:36:16;;;;;;;67.50;48.08;;;;;;;25.53;68.32;101502.53;6161326;23;20087;-80
2022/06/04 08:38:44;;;;;;;67.95;47.42;;;;;;;25.56;68.04;101516.56;6176792;23;20076;-78
2022/06/04 08:41:35;;;;;;;75.22;51.30;;;;;;;25.04;68.02;101433.25;6160849;23;20021;-80
2022/06/04 08:44:08;;;;;;;77.60;47.72;;;;;;;25.49;68.12;101506.75;6161160;23;20036;-80
2022/06/04 08:46:46;;;;;;;69.53;50.47;;;;;;;25.72;67.80;101525.28;6187543;23;20510;-81
2022/06/04 08:49:27;;;;;;;67.72;48.38;;;;;;;25.86;67.14;101545.16;6161213;23;20096;-79
2022/06/04 08:51:54;;;;;;;70.25;48.42;;;;;;;25.94;66.46;101526.69;6161094;23;20029;-79
2022/06/04 08:57:32;;;;;;;74.22;48.25;;;;;;;25.66;66.83;101472.59;6187154;23;20377;-79
2022/06/04 09:00:18;;;;;;;69.80;47.90;;;;;;;26.21;65.85;101538.28;6150571;23;20025;-80
2022/06/04 09:03:00;;;;;;;64.88;47.25;;;;;;;26.08;65.69;101508.41;6159598;23;20096;-79
2022/06/04 09:05:38;;;;;;;66.32;46.63;;;;;;;26.34;66.04;101533.81;6160432;23;20076;-80
2022/06/04 09:08:27;;;;;;;66.18;48.50;;;;;;;26.41;65.02;101521.84;6160499;23;20025;-80
2022/06/04 09:10:57;;;;;;;66.20;44.85;;;;;;;26.29;65.09;101476.47;6160342;23;20021;-80
2022/06/04 09:13:34;;;;;;;60.90;45.60;;;;;;;26.34;64.40;101471.22;6187798;23;20567;-80
2022/06/04 09:16:30;;;;;;;69.88;45.28;;;;;;;26.61;63.10;101521.72;6161416;23;20021;-79
2022/06/04 09:19:00;;;;;;;64.22;44.88;;;;;;;26.60;63.95;101528.22;6175419;23;20021;-80
2022/06/04 09:21:35;;;;;;;63.17;44.25;;;;;;;26.23;63.54;101476.28;6160742;23;20071;-79
2022/06/04 09:24:03;;;;;;;60.10;41.08;;;;;;;26.34;62.97;101493.00;6160359;23;20021;-80
2022/06/04 09:26:44;;;;;;;63.35;41.70;;;;;;;26.57;63.20;101523.22;6160446;23;20021;-77
2022/06/04 09:29:11;;;;;;;73.03;46.78;;;;;;;26.66;63.62;101517.50;6160340;23;20499;-79
2022/06/04 09:32:10;;;;;;;59.88;42.42;;;;;;;26.74;63.07;101520.78;6160623;23;20355;-79
2022/06/04 09:34:39;;;;;;;64.03;45.75;;;;;;;26.88;61.73;101521.50;6160732;23;20021;-79
2022/06/04 09:37:09;;;;;;;59.38;40.88;;;;;;;26.70;61.87;101526.88;6160564;23;20087;-80
2022/06/04 09:39:39;;;;;;;62.97;41.85;;;;;;;26.66;62.23;101521.06;6160654;23;20075;-80
2022/06/04 09:42:24;;;;;;;65.55;45.63;;;;;;;26.57;62.33;101501.44;6150586;23;20025;-80
2022/06/04 09:44:58;;;;;;;61.42;43.33;;;;;;;26.80;62.89;101527.25;6186736;23;20032;-81
2022/06/04 09:47:44;;;;;;;67.30;42.50;;;;;;;26.90;61.90;101532.19;6160825;23;20373;-81
2022/06/04 09:50:34;;;;;;;64.75;42.72;;;;;;;27.02;61.13;101524.97;6162241;23;20303;-78
2022/06/04 09:53:19;;;;;;;60.78;43.72;;;;;;;27.15;61.31;101499.47;6162396;23;20338;-81
2022/06/04 09:56:09;;;;;;;62.15;42.63;;;;;;;26.87;60.29;101410.91;6161779;23;20017;-78
2022/06/04 09:58:50;;;;;;;64.43;44.08;;;;;;;26.11;60.04;101293.03;6152613;23;20021;-81
2022/06/04 10:01:16;;;;;;;61.05;43.70;;;;;;;27.70;58.53;101524.06;6160819;23;20029;-80
2022/06/04 10:03:45;;;;;;;58.55;41.55;;;;;;;27.44;58.54;101492.47;6158677;23;20025;-82
2022/06/04 10:06:16;;;;;;;57.25;40.53;;;;;;;27.45;58.60;101522.25;6159846;23;20025;-81
2022/06/04 10:11:47;;;;;;;50.55;39.08;;;;;;;27.34;58.80;101506.63;6188152;23;20480;-78
2022/06/04 10:14:14;;;;;;;66.45;43.00;;;;;;;27.31;59.09;101509.81;6162075;23;20025;-81
2022/06/04 10:16:44;;;;;;;58.47;39.85;;;;;;;27.26;59.23;101479.69;6188502;23;20080;-80
2022/06/04 10:19:21;;;;;;;61.20;41.03;;;;;;;27.65;58.09;101499.38;6152852;23;20083;-78
2022/06/04 10:22:01;;;;;;;58.03;42.97;;;;;;;27.48;57.91;101434.53;6179011;23;20076;-80
2022/06/04 10:24:36;;;;;;;59.17;39.78;;;;;;;27.92;57.44;101465.25;6188499;23;20075;-80
2022/06/04 10:27:37;;;;;;;56.65;41.55;;;;;;;27.77;56.26;101432.06;6165041;23;20025;-81
2022/06/04 10:30:12;;;;;;;55.53;37.60;;;;;;;28.02;56.71;101439.31;6167010;23;20048;-80
2022/06/04 10:32:48;;;;;;;51.35;37.83;;;;;;;28.48;57.07;101487.78;6166987;23;20021;-80
2022/06/04 10:35:52;;;;;;;56.40;42.80;;;;;;;27.76;55.66;101342.28;6164214;23;20099;-79
2022/06/04 10:38:48;;;;;;;57.00;39.97;;;;;;;28.72;56.17;101483.19;6153495;23;20188;-79
2022/06/04 10:41:31;;;;;;;55.55;38.88;;;;;;;28.00;55.85;101319.47;6188490;23;20024;-79
2022/06/04 10:44:20;;;;;;;57.38;39.50;;;;;;;29.23;54.80;101478.09;6162260;23;20346;-80
2022/06/04 10:47:19;;;;;;;50.33;36.97;;;;;;;29.39;53.85;101466.41;6162302;23;20024;-79
2022/06/04 10:50:18;;;;;;;57.63;39.47;;;;;;;29.49;53.21;101465.81;6102994;23;20035;-79
2022/06/04 10:52:47;;;;;;;47.10;35.65;;;;;;;28.87;53.09;101329.69;6188313;23;20036;-80
2022/06/04 10:55:47;;;;;;;54.42;38.95;;;;;;;29.58;52.00;101430.69;6163939;23;20461;-80
2022/06/04 10:58:43;;;;;;;47.88;37.17;;;;;;;29.93;52.49;101479.84;6161448;23;20357;-80
2022/06/04 11:01:13;;;;;;;50.55;37.92;;;;;;;29.64;52.39;101429.72;6152030;23;20024;-80
2022/06/04 11:04:07;;;;;;;48.13;35.83;;;;;;;29.97;52.20;101478.28;6162111;23;20021;-79
2022/06/04 11:06:43;;;;;;;58.03;38.10;;;;;;;29.96;52.28;101465.66;6161998;23;20048;-79
2022/06/04 11:09:18;;;;;;;57.15;37.90;;;;;;;29.99;51.75;101459.69;6162125;23;20040;-79
2022/06/04 11:11:51;;;;;;;49.67;37.22;;;;;;;30.02;52.33;101470.16;6161871;23;20090;-80
2022/06/04 11:14:28;;;;;;;55.70;37.25;;;;;;;30.16;51.97;101470.69;6162061;23;20099;-78
2022/06/04 11:17:00;;;;;;;49.38;35.92;;;;;;;30.33;51.96;101469.91;6151797;23;20032;-81
2022/06/04 11:19:43;;;;;;;52.08;36.70;;;;;;;30.37;51.55;101436.31;6155183;23;20056;-78
2022/06/04 11:22:18;;;;;;;57.05;38.55;;;;;;;30.73;51.52;101464.28;6189272;23;20024;-80
2022/06/04 11:24:56;;;;;;;55.15;39.00;;;;;;;30.63;50.60;101423.00;6161589;23;20025;-80
2022/06/04 11:27:49;;;;;;;47.20;32.22;;;;;;;30.75;51.34;101445.66;6162655;23;20083;-80
2022/06/04 11:30:48;;;;;;;46.28;33.70;;;;;;;30.81;51.41;101443.84;6162398;23;20092;-79
2022/06/04 11:33:27;;;;;;;55.35;37.67;;;;;;;30.55;50.63;101415.22;6136233;23;20024;-80
2022/06/04 11:36:32;;;;;;;43.22;33.95;;;;;;;30.56;50.81;101420.44;6151327;23;20075;-80
2022/06/04 11:39:11;;;;;;;46.22;35.63;;;;;;;30.53;50.68;101414.63;6161515;23;20438;-81
2022/06/04 11:41:53;;;;;;;54.78;34.03;;;;;;;30.92;50.79;101450.31;6161348;23;20044;-81
2022/06/04 11:45:00;;;;;;;53.15;36.03;;;;;;;30.97;50.28;101436.69;6162066;23;20278;-81
2022/06/04 11:47:39;;;;;;;47.75;32.30;;;;;;;30.31;49.97;101297.63;6144997;23;20025;-78
2022/06/04 11:50:14;;;;;;;47.10;33.05;;;;;;;31.33;49.62;101434.41;6161143;23;20025;-82